createdAt,value
2023-01-01T00:02:30.436Z,1.17
2023-01-01T00:08:37.301Z,1.10
2023-01-01T00:14:48.289Z,0.95
2023-01-01T00:20:57.097Z,1.32
2023-01-01T00:27:10.015Z,1.10
2023-01-01T00:33:19.537Z,1.25
2023-01-01T00:39:28.840Z,1.37
2023-01-01T00:45:41.411Z,1.15
2023-01-01T00:51:52.808Z,1.35
2023-01-01T00:58:02.091Z,0.80
2023-01-01T01:04:13.611Z,1.10
2023-01-01T01:10:23.040Z,0.60
2023-01-01T01:16:34.809Z,2.05
2023-01-01T01:22:42.274Z,1.12
2023-01-01T01:28:52.215Z,1.05
2023-01-01T01:35:03.108Z,0.72
2023-01-01T01:41:26.875Z,0.95
2023-01-01T01:47:27.086Z,0.80
2023-01-01T01:53:39.059Z,0.80
2023-01-01T01:59:50.466Z,1.32
2023-01-01T02:06:01.459Z,0.95
2023-01-01T02:12:14.666Z,0.93
2023-01-01T02:18:25.953Z,1.12
2023-01-01T02:24:58.087Z,0.80
2023-01-01T02:31:10.935Z,1.10
2023-01-01T02:37:21.052Z,0.95
2023-01-01T02:43:30.759Z,0.80
2023-01-01T02:49:40.752Z,0.93
2023-01-01T02:56:01.869Z,0.78
2023-01-01T03:02:15.170Z,0.75
2023-01-01T03:08:25.373Z,1.85
2023-01-01T03:14:37.469Z,1.27
2023-01-01T03:20:52.087Z,1.22
2023-01-01T03:27:02.260Z,1.50
2023-01-01T03:33:13.936Z,4.25
2023-01-01T03:39:25.925Z,4.22
2023-01-01T03:45:37.933Z,3.58
2023-01-01T03:52:06.326Z,0.68
2023-01-01T03:58:22.033Z,1.52
2023-01-01T04:04:31.942Z,1.37
2023-01-01T04:10:42.564Z,1.20
2023-01-01T04:16:50.133Z,2.02
2023-01-01T04:22:59.440Z,0.90
2023-01-01T04:29:10.907Z,1.35
2023-01-01T04:35:20.173Z,1.65
2023-01-01T04:41:27.711Z,1.20
2023-01-01T04:47:36.029Z,0.80
2023-01-01T04:53:48.619Z,0.80
2023-01-01T04:59:59.563Z,0.90
2023-01-01T05:06:11.360Z,1.00
2023-01-01T05:12:23.841Z,0.88
2023-01-01T05:18:31.391Z,0.85
2023-01-01T05:24:39.805Z,1.20
2023-01-01T05:30:49.783Z,3.17
2023-01-01T05:36:57.188Z,1.40
2023-01-01T05:43:08.154Z,2.35
2023-01-01T05:49:21.159Z,1.50
2023-01-01T05:55:30.087Z,1.20
2023-01-01T06:01:43.428Z,0.62
2023-01-01T06:07:48.755Z,1.80
2023-01-01T06:13:59.561Z,4.12
2023-01-01T06:20:10.365Z,1.90
2023-01-01T06:26:22.087Z,1.17
2023-01-01T06:32:29.506Z,2.47
2023-01-01T06:38:38.936Z,1.87
2023-01-01T06:44:49.479Z,2.77
2023-01-01T06:50:58.307Z,4.78
2023-01-01T06:57:07.392Z,1.67
2023-01-01T07:03:17.649Z,1.82
2023-01-01T07:09:30.216Z,7.10
2023-01-01T07:15:41.400Z,3.62
2023-01-01T07:21:49.732Z,3.50
2023-01-01T07:27:57.825Z,2.85
2023-01-01T07:34:12.752Z,2.17
2023-01-01T07:40:24.924Z,3.10
2023-01-01T07:46:35.977Z,2.12
2023-01-01T07:52:46.033Z,1.92
2023-01-01T07:58:55.935Z,2.77
2023-01-01T08:05:08.267Z,1.32
2023-01-01T08:11:21.342Z,3.77
2023-01-01T08:17:32.759Z,1.30
2023-01-01T08:23:42.900Z,3.37
2023-01-01T08:29:56.870Z,2.10
2023-01-01T08:36:10.885Z,1.57
2023-01-01T08:42:23.230Z,1.45
2023-01-01T08:48:35.321Z,0.95
2023-01-01T08:54:50.610Z,1.30
2023-01-01T09:00:59.265Z,1.15
2023-01-01T09:07:11.395Z,1.65
2023-01-01T09:13:22.433Z,1.57
2023-01-01T09:19:35.106Z,0.90
2023-01-01T09:32:04.828Z,1.30
2023-01-01T09:38:16.716Z,1.05
2023-01-01T09:44:35.403Z,1.05
2023-01-01T09:50:44.723Z,1.15
2023-01-01T09:56:55.049Z,1.25
2023-01-01T10:03:16.358Z,1.22
2023-01-01T10:09:29.216Z,1.40
2023-01-01T10:15:41.323Z,1.70
2023-01-01T10:21:54.937Z,1.27
2023-01-01T10:28:07.026Z,1.57
2023-01-01T10:34:23.867Z,1.60
2023-01-01T10:46:47.486Z,1.90
2023-01-01T10:53:03.565Z,1.65
2023-01-01T10:59:36.014Z,1.10
2023-01-01T11:05:49.747Z,1.77
2023-01-01T11:12:11.887Z,1.60
2023-01-01T11:18:19.610Z,1.20
2023-01-01T11:24:31.159Z,1.62
2023-01-01T11:30:44.176Z,1.30
2023-01-01T11:36:57.709Z,1.57
2023-01-01T11:43:12.999Z,1.32
2023-01-01T11:49:28.331Z,1.57
2023-01-01T11:55:46.708Z,1.17
2023-01-01T12:02:00.599Z,1.92
2023-01-01T12:08:11.883Z,1.12
2023-01-01T12:14:23.042Z,1.42
2023-01-01T12:20:33.832Z,1.67
2023-01-01T12:26:52.294Z,1.22
2023-01-01T12:33:25.953Z,1.20
2023-01-01T12:40:14.958Z,1.07
2023-01-01T12:46:28.785Z,1.98
2023-01-01T12:52:46.114Z,1.22
2023-01-01T12:58:58.847Z,1.25
2023-01-01T13:05:17.128Z,1.12
2023-01-01T13:11:29.228Z,1.95
2023-01-01T13:17:39.407Z,1.15
2023-01-01T13:23:58.313Z,0.82
2023-01-01T13:30:10.233Z,1.92
2023-01-01T13:36:39.632Z,1.20
2023-01-01T13:43:00.743Z,1.62
2023-01-01T13:49:35.556Z,1.47
2023-01-01T13:55:52.451Z,1.47
2023-01-01T14:02:06.007Z,1.42
2023-01-01T14:08:31.733Z,1.60
2023-01-01T14:14:46.416Z,1.95
2023-01-01T14:20:57.685Z,1.42
2023-01-01T14:27:07.707Z,1.52
2023-01-01T14:33:29.535Z,2.08
2023-01-01T14:39:43.851Z,1.70
2023-01-01T14:45:56.660Z,1.25
2023-01-01T14:52:09.008Z,1.92
2023-01-01T14:58:21.995Z,1.72
2023-01-01T15:04:32.401Z,1.57
2023-01-01T15:10:44.176Z,1.20
2023-01-01T15:17:08.460Z,3.65
2023-01-01T15:23:20.351Z,1.35
2023-01-01T15:29:39.772Z,2.40
2023-01-01T15:35:52.959Z,2.00
2023-01-01T15:42:06.102Z,1.60
2023-01-01T15:48:26.378Z,1.07
2023-01-01T15:54:37.676Z,1.20
2023-01-01T16:00:47.872Z,1.67
2023-01-01T16:07:00.933Z,3.58
2023-01-01T16:13:10.184Z,1.50
2023-01-01T16:19:20.171Z,3.58
2023-01-01T16:25:29.472Z,1.70
2023-01-01T16:31:40.338Z,2.70
2023-01-01T16:37:53.019Z,1.52
2023-01-01T16:44:00.960Z,1.70
2023-01-01T16:50:12.239Z,1.67
2023-01-01T16:56:23.190Z,1.22
2023-01-01T17:02:38.049Z,2.08
2023-01-01T17:08:49.340Z,2.70
2023-01-01T17:14:58.564Z,1.40
2023-01-01T17:21:11.732Z,2.00
2023-01-01T17:27:23.516Z,1.35
2023-01-01T17:33:35.174Z,1.82
2023-01-01T17:39:44.723Z,1.17
2023-01-01T17:45:53.738Z,1.20
2023-01-01T17:52:05.812Z,1.52
2023-01-01T17:58:16.149Z,3.50
2023-01-01T18:04:25.196Z,2.10
2023-01-01T18:10:36.002Z,1.32
2023-01-01T18:16:47.593Z,2.35
2023-01-01T18:22:58.125Z,1.87
2023-01-01T18:29:09.737Z,2.20
2023-01-01T18:35:20.937Z,2.00
2023-01-01T18:41:40.994Z,2.00
2023-01-01T18:47:52.614Z,1.75
2023-01-01T18:54:04.321Z,2.02
2023-01-01T19:00:20.427Z,2.52
2023-01-01T19:06:33.092Z,1.82
2023-01-01T19:12:45.724Z,1.42
2023-01-01T19:18:55.197Z,3.17
2023-01-01T19:25:12.071Z,2.60
2023-01-01T19:31:23.879Z,2.15
2023-01-01T19:37:37.384Z,3.30
2023-01-01T19:43:50.503Z,2.42
2023-01-01T19:50:04.148Z,1.57
2023-01-01T19:56:16.977Z,2.35
2023-01-01T20:02:45.421Z,1.62
2023-01-01T20:08:38.261Z,4.40
2023-01-01T20:14:49.427Z,3.08
2023-01-01T20:21:20.437Z,2.62
2023-01-01T20:27:31.028Z,3.00
2023-01-01T20:33:43.095Z,5.87
2023-01-01T20:39:54.724Z,4.60
2023-01-01T20:46:06.134Z,2.85
2023-01-01T20:52:17.343Z,2.67
2023-01-01T20:58:27.115Z,7.90
2023-01-01T21:04:39.674Z,2.37
2023-01-01T21:10:49.083Z,2.75
2023-01-01T21:17:00.296Z,2.75
2023-01-01T21:23:11.468Z,5.22
2023-01-01T21:29:21.831Z,2.60
2023-01-01T21:35:33.975Z,3.75
2023-01-01T21:41:46.531Z,2.60
2023-01-01T21:47:59.234Z,5.30
2023-01-01T21:54:24.597Z,2.10
2023-01-01T22:00:38.727Z,15.03
2023-01-01T22:06:47.943Z,14.68
2023-01-01T22:13:02.969Z,16.65
2023-01-01T22:19:17.255Z,33.50
2023-01-01T22:25:33.584Z,205.35
2023-01-01T22:31:47.222Z,166.32
2023-01-01T22:37:56.263Z,160.03
2023-01-01T22:44:08.847Z,118.47
2023-01-01T22:50:23.025Z,95.32
2023-01-01T22:56:34.023Z,85.95
2023-01-01T23:02:48.398Z,68.65
2023-01-01T23:08:57.326Z,70.83
2023-01-01T23:15:22.962Z,55.70
2023-01-01T23:21:34.237Z,51.63
2023-01-01T23:27:42.408Z,47.10
2023-01-01T23:33:54.267Z,46.02
2023-01-01T23:40:05.616Z,46.68
2023-01-01T23:46:15.599Z,37.73
2023-01-01T23:52:28.518Z,35.45
2023-01-01T23:58:38.275Z,36.13
